Terminal Aerodrome Forecast
Issued by NWS

Home | Current Version | Previous Version | Text Only | Print | Product List | Glossary On
Versions: 1 2 3 4 5 6 7 8 9 10 11 12 13 14 15 16 17 18 19 20
398
FTUS45 KFGZ 280542
TAFGCN
TAF
KGCN 280542Z 2806/0106 20011KT 4SM -SN BR OVC008
      TEMPO 2806/2809 1SM -SN BR VV004
     FM280900 22011KT 1/2SM SN VV005
      TEMPO 2809/2812 1/4SM +SN FZFG VV002
     FM281800 24010KT P6SM BKN035 PROB30 2818/2822 4SM -SHSN BR
      BKN010=

USA.gov is the U.S. government's official web portal to all federal, state and local government web resources and services.